createdAt,value
2022-11-09T00:02:25.921Z,2.55
2022-11-09T00:04:52.835Z,2.60
2022-11-09T00:07:21.160Z,2.22
2022-11-09T00:09:48.186Z,1.95
2022-11-09T00:12:15.183Z,1.98
2022-11-09T00:14:42.161Z,2.00
2022-11-09T00:17:09.120Z,1.88
2022-11-09T00:19:36.086Z,2.13
2022-11-09T00:22:03.017Z,2.10
2022-11-09T00:24:31.342Z,2.67
2022-11-09T00:26:58.263Z,2.47
2022-11-09T00:29:29.083Z,2.40
2022-11-09T00:31:56.043Z,1.90
2022-11-09T00:34:23.058Z,2.03
2022-11-09T00:36:50.040Z,2.05
2022-11-09T00:39:17.156Z,2.60
2022-11-09T00:41:45.470Z,2.15
2022-11-09T00:44:12.501Z,1.85
2022-11-09T00:46:39.640Z,2.08
2022-11-09T00:49:06.750Z,2.35
2022-11-09T00:51:34.003Z,2.30
2022-11-09T00:54:01.112Z,1.98
2022-11-09T00:56:29.165Z,2.20
2022-11-09T00:58:57.587Z,2.45
2022-11-09T01:01:24.782Z,1.83
2022-11-09T01:03:52.036Z,1.58
2022-11-09T01:06:21.240Z,2.08
2022-11-09T01:08:49.102Z,1.85
2022-11-09T01:11:18.414Z,2.13
2022-11-09T01:13:45.598Z,2.28
2022-11-09T01:16:15.475Z,2.00
2022-11-09T01:18:43.105Z,2.35
2022-11-09T01:21:11.686Z,1.73
2022-11-09T01:23:39.587Z,2.42
2022-11-09T01:26:10.268Z,1.73
2022-11-09T01:28:37.339Z,2.50
2022-11-09T01:31:07.011Z,2.17
2022-11-09T01:33:36.560Z,1.95
2022-11-09T01:36:04.542Z,2.28
2022-11-09T01:38:32.154Z,1.63
2022-11-09T01:40:59.469Z,1.80
2022-11-09T01:43:27.480Z,1.67
2022-11-09T01:45:58.943Z,1.65
2022-11-09T01:48:34.442Z,1.40
2022-11-09T01:51:08.726Z,1.63
2022-11-09T01:53:40.088Z,1.63
2022-11-09T01:56:13.661Z,1.55
2022-11-09T01:58:49.136Z,1.58
2022-11-09T02:01:18.148Z,1.58
2022-11-09T02:03:49.784Z,1.60
2022-11-09T02:06:20.641Z,1.77
2022-11-09T02:08:48.919Z,1.45
2022-11-09T02:11:19.141Z,1.50
2022-11-09T02:13:49.570Z,1.42
2022-11-09T02:16:18.566Z,1.50
2022-11-09T02:18:51.970Z,1.92
2022-11-09T02:21:22.245Z,1.50
2022-11-09T02:23:49.877Z,1.73
2022-11-09T02:26:23.774Z,1.95
2022-11-09T02:28:52.853Z,1.90
2022-11-09T02:31:22.182Z,2.28
2022-11-09T02:34:04.536Z,1.80
2022-11-09T02:36:34.861Z,1.80
2022-11-09T02:39:04.105Z,2.17
2022-11-09T02:41:32.436Z,1.73
2022-11-09T02:44:01.879Z,2.17
2022-11-09T02:46:32.851Z,2.20
2022-11-09T02:49:00.974Z,2.20
2022-11-09T02:51:28.556Z,2.20
2022-11-09T02:53:57.193Z,1.90
2022-11-09T02:56:24.884Z,2.10
2022-11-09T02:58:52.490Z,2.08
2022-11-09T03:01:19.643Z,1.98
2022-11-09T03:03:46.952Z,2.33
2022-11-09T03:06:14.456Z,2.10
2022-11-09T03:08:44.653Z,2.33
2022-11-09T03:11:13.185Z,2.28
2022-11-09T03:13:40.173Z,1.88
2022-11-09T03:16:09.470Z,2.05
2022-11-09T03:18:39.690Z,1.92
2022-11-09T03:21:07.687Z,2.30
2022-11-09T03:23:34.689Z,2.10
2022-11-09T03:26:02.978Z,1.90
2022-11-09T03:28:31.505Z,2.20
2022-11-09T03:30:58.617Z,2.03
2022-11-09T03:33:26.346Z,1.88
2022-11-09T03:35:53.708Z,2.13
2022-11-09T03:38:20.831Z,2.22
2022-11-09T03:40:50.370Z,2.15
2022-11-09T03:43:17.765Z,2.60
2022-11-09T03:45:46.697Z,2.20
2022-11-09T03:48:13.682Z,2.00
2022-11-09T03:50:40.744Z,2.10
2022-11-09T03:53:10.719Z,2.28
2022-11-09T03:55:38.352Z,1.85
2022-11-09T03:58:06.681Z,2.03
2022-11-09T04:00:33.760Z,2.47
2022-11-09T04:03:02.515Z,2.60
2022-11-09T04:05:29.471Z,1.83
2022-11-09T04:07:58.110Z,2.17
2022-11-09T04:10:26.523Z,1.95
2022-11-09T04:12:53.594Z,2.08
2022-11-09T04:15:20.691Z,1.73
2022-11-09T04:17:55.611Z,2.53
2022-11-09T04:20:24.529Z,1.98
2022-11-09T04:22:55.352Z,1.75
2022-11-09T04:25:22.641Z,1.95
2022-11-09T04:27:53.699Z,2.25
2022-11-09T04:30:20.621Z,2.33
2022-11-09T04:32:47.566Z,1.95
2022-11-09T04:35:14.689Z,2.08
2022-11-09T04:37:43.048Z,2.08
2022-11-09T04:40:11.312Z,1.65
2022-11-09T04:42:38.216Z,1.75
2022-11-09T04:45:06.095Z,2.05
2022-11-09T04:47:33.434Z,1.85
2022-11-09T04:50:00.697Z,2.33
2022-11-09T04:52:27.856Z,1.63
2022-11-09T04:54:56.189Z,2.08
2022-11-09T04:57:23.230Z,1.65
2022-11-09T04:59:50.202Z,2.10
2022-11-09T05:02:17.193Z,2.45
2022-11-09T05:04:44.192Z,1.77
2022-11-09T05:07:11.182Z,2.38
2022-11-09T05:09:38.346Z,1.92
2022-11-09T05:12:07.582Z,2.28
2022-11-09T05:14:34.549Z,2.03
2022-11-09T05:17:01.453Z,2.25
2022-11-09T05:19:28.399Z,2.38
2022-11-09T05:21:55.350Z,2.60
2022-11-09T05:24:22.328Z,2.03
2022-11-09T05:26:49.371Z,2.10
2022-11-09T05:29:17.681Z,2.90
2022-11-09T05:31:51.810Z,2.25
2022-11-09T05:34:19.703Z,2.22
2022-11-09T05:36:46.627Z,2.65
2022-11-09T05:39:13.610Z,2.30
2022-11-09T05:41:41.470Z,2.13
2022-11-09T05:44:11.560Z,1.98
2022-11-09T05:46:39.887Z,2.75
2022-11-09T05:49:13.156Z,3.15
2022-11-09T05:51:40.452Z,2.50
2022-11-09T05:54:10.536Z,3.30
2022-11-09T05:56:37.588Z,2.70
2022-11-09T05:59:05.101Z,2.20
2022-11-09T06:01:32.418Z,2.88
2022-11-09T06:04:01.099Z,2.90
2022-11-09T06:06:30.037Z,2.50
2022-11-09T06:08:57.568Z,2.60
2022-11-09T06:11:24.767Z,2.63
2022-11-09T06:13:52.179Z,2.97
2022-11-09T06:16:19.357Z,2.38
2022-11-09T06:18:46.384Z,2.67
2022-11-09T06:21:14.774Z,2.63
2022-11-09T06:23:41.889Z,2.70
2022-11-09T06:26:10.794Z,3.40
2022-11-09T06:28:38.573Z,2.53
2022-11-09T06:31:08.270Z,2.95
2022-11-09T06:33:36.774Z,2.63
2022-11-09T06:36:04.802Z,2.80
2022-11-09T06:38:33.249Z,2.65
2022-11-09T06:41:00.698Z,3.35
2022-11-09T06:43:28.545Z,2.75
2022-11-09T06:45:56.292Z,2.80
2022-11-09T06:48:24.064Z,2.42
2022-11-09T06:50:51.139Z,2.55
2022-11-09T06:53:19.351Z,2.80
2022-11-09T06:55:50.847Z,2.90
2022-11-09T06:58:19.563Z,2.78
2022-11-09T07:00:47.018Z,3.10
2022-11-09T07:03:14.864Z,2.78
2022-11-09T07:05:41.798Z,2.60
2022-11-09T07:08:08.777Z,3.13
2022-11-09T07:10:35.863Z,2.40
2022-11-09T07:13:04.464Z,2.58
2022-11-09T07:15:32.141Z,2.83
2022-11-09T07:18:00.446Z,2.50
2022-11-09T07:20:28.527Z,2.10
2022-11-09T07:22:55.725Z,2.60
2022-11-09T07:25:23.017Z,2.90
2022-11-09T07:27:50.795Z,2.63
2022-11-09T07:30:19.426Z,2.53
2022-11-09T07:33:08.069Z,2.50
2022-11-09T07:35:33.338Z,2.45
2022-11-09T07:38:01.486Z,2.42
2022-11-09T07:40:29.013Z,2.45
2022-11-09T07:42:58.334Z,2.60
2022-11-09T07:45:27.017Z,2.83
2022-11-09T07:47:56.428Z,2.45
2022-11-09T07:50:23.409Z,3.00
2022-11-09T07:52:50.492Z,2.10
2022-11-09T07:55:18.137Z,2.80
2022-11-09T07:57:47.096Z,2.67
2022-11-09T08:00:18.729Z,2.03
2022-11-09T08:02:51.057Z,2.58
2022-11-09T08:05:18.203Z,2.40
2022-11-09T08:07:45.232Z,1.83
2022-11-09T08:10:12.275Z,2.28
2022-11-09T08:12:39.518Z,2.83
2022-11-09T08:15:07.920Z,2.72
2022-11-09T08:17:35.469Z,2.15
2022-11-09T08:20:04.434Z,2.33
2022-11-09T08:22:31.540Z,2.25
2022-11-09T08:28:35.043Z,2.50
2022-11-09T08:31:36.148Z,1.92
2022-11-09T08:34:03.708Z,2.45
2022-11-09T08:36:34.033Z,2.75
2022-11-09T08:39:01.380Z,2.22
2022-11-09T08:41:29.327Z,2.00
2022-11-09T08:43:56.334Z,2.60
2022-11-09T08:46:23.278Z,2.20
2022-11-09T08:48:50.241Z,2.20
2022-11-09T08:51:17.271Z,2.13
2022-11-09T08:53:45.615Z,2.38
2022-11-09T08:56:12.963Z,2.15
2022-11-09T08:58:39.975Z,1.95
2022-11-09T09:01:12.294Z,2.60
2022-11-09T09:03:42.496Z,2.65
2022-11-09T09:06:09.687Z,2.42
2022-11-09T09:08:36.651Z,2.55
2022-11-09T09:11:06.067Z,2.13
2022-11-09T09:13:35.048Z,2.47
2022-11-09T09:16:11.644Z,2.22
2022-11-09T09:18:38.786Z,2.30
2022-11-09T09:21:07.620Z,2.22
2022-11-09T09:23:34.693Z,2.45
2022-11-09T09:26:01.796Z,2.60
2022-11-09T09:28:30.385Z,2.42
2022-11-09T09:30:59.759Z,2.80
2022-11-09T09:33:29.432Z,2.33
2022-11-09T09:35:57.396Z,2.53
2022-11-09T09:38:24.756Z,2.67
2022-11-09T09:40:58.533Z,2.58
2022-11-09T09:43:35.260Z,2.30
2022-11-09T09:46:12.169Z,2.53
2022-11-09T09:48:45.144Z,2.63
2022-11-09T09:51:21.832Z,2.42
2022-11-09T09:53:53.430Z,2.15
2022-11-09T09:56:24.789Z,2.40
2022-11-09T09:58:57.966Z,2.40
2022-11-09T10:01:35.537Z,2.28
2022-11-09T10:04:02.971Z,2.47
2022-11-09T10:06:41.428Z,1.92
2022-11-09T10:09:22.888Z,2.30
2022-11-09T10:12:01.685Z,2.20
2022-11-09T10:14:56.123Z,2.25
2022-11-09T10:17:35.295Z,2.88
2022-11-09T10:20:16.580Z,2.60
2022-11-09T10:25:37.645Z,2.65
2022-11-09T10:28:13.261Z,2.08
2022-11-09T10:30:42.303Z,2.00
2022-11-09T10:33:16.742Z,2.10
2022-11-09T10:35:48.859Z,2.25
2022-11-09T10:38:21.634Z,2.42
2022-11-09T10:41:24.302Z,2.00
2022-11-09T10:44:17.340Z,2.20
2022-11-09T10:47:07.968Z,2.17
2022-11-09T10:50:14.818Z,2.15
2022-11-09T10:53:11.208Z,2.42
2022-11-09T10:55:58.505Z,2.20
2022-11-09T10:58:48.384Z,2.40
2022-11-09T11:01:37.270Z,2.42
2022-11-09T11:04:26.101Z,2.25
2022-11-09T11:07:20.604Z,2.10
2022-11-09T11:10:11.235Z,1.98
2022-11-09T11:13:19.742Z,2.38
2022-11-09T11:16:15.763Z,1.70
2022-11-09T11:19:02.567Z,2.03
2022-11-09T11:22:10.460Z,2.00
2022-11-09T11:24:57.566Z,2.25
2022-11-09T11:27:46.337Z,1.90
2022-11-09T11:30:37.416Z,1.90
2022-11-09T11:33:23.707Z,1.70
2022-11-09T11:36:19.728Z,2.30
2022-11-09T11:39:15.729Z,2.20
2022-11-09T11:42:31.178Z,1.77
2022-11-09T11:45:40.186Z,2.30
2022-11-09T11:49:01.501Z,2.35
2022-11-09T11:51:55.231Z,2.40
2022-11-09T11:55:07.468Z,1.98
2022-11-09T11:58:06.879Z,1.50
2022-11-09T12:00:58.778Z,2.55
2022-11-09T12:04:02.658Z,1.42
2022-11-09T12:06:57.284Z,1.92
2022-11-09T12:10:02.686Z,1.98
2022-11-09T12:13:00.504Z,1.70
2022-11-09T12:15:54.384Z,1.88
2022-11-09T12:18:52.553Z,1.90
2022-11-09T12:21:44.112Z,2.25
2022-11-09T12:27:42.197Z,2.25
2022-11-09T12:30:43.337Z,2.15
2022-11-09T12:33:43.022Z,1.90
2022-11-09T12:36:37.802Z,1.90
2022-11-09T12:39:28.833Z,1.60
2022-11-09T12:42:18.926Z,2.08
2022-11-09T12:45:17.913Z,1.83
2022-11-09T12:48:11.726Z,1.40
2022-11-09T12:50:59.488Z,1.67
2022-11-09T12:53:45.571Z,1.30
2022-11-09T12:56:36.907Z,1.77
2022-11-09T12:59:35.529Z,1.75
2022-11-09T13:02:30.223Z,1.33
2022-11-09T13:05:32.057Z,1.42
2022-11-09T13:08:20.871Z,1.52
2022-11-09T13:11:19.063Z,1.73
2022-11-09T13:14:41.490Z,1.85
2022-11-09T13:18:00.279Z,1.48
2022-11-09T13:20:56.857Z,1.42
2022-11-09T13:26:56.729Z,1.25
2022-11-09T13:29:55.099Z,1.30
2022-11-09T13:33:17.657Z,1.45
2022-11-09T13:36:23.237Z,1.80
2022-11-09T13:39:30.766Z,1.27
2022-11-09T13:42:28.167Z,1.23
2022-11-09T13:45:28.110Z,1.42
2022-11-09T13:48:38.695Z,1.27
2022-11-09T13:51:41.508Z,1.00
2022-11-09T13:54:32.581Z,1.00
2022-11-09T14:00:07.051Z,1.30
2022-11-09T14:02:54.669Z,1.40
2022-11-09T14:05:41.988Z,1.40
2022-11-09T14:08:33.894Z,1.13
2022-11-09T14:11:51.202Z,1.50
2022-11-09T14:15:05.318Z,1.73
2022-11-09T14:18:02.579Z,1.98
2022-11-09T14:20:55.660Z,1.13
2022-11-09T14:23:43.230Z,1.27
2022-11-09T14:26:28.696Z,1.35
2022-11-09T14:29:21.437Z,1.23
2022-11-09T14:32:24.161Z,1.05
2022-11-09T14:35:24.341Z,1.38
2022-11-09T14:38:18.677Z,1.45
2022-11-09T14:41:19.364Z,1.55
2022-11-09T14:44:05.913Z,1.30
2022-11-09T14:46:53.763Z,1.10
2022-11-09T14:49:40.266Z,1.23
2022-11-09T14:52:29.917Z,1.35
2022-11-09T14:55:17.227Z,1.55
2022-11-09T14:58:04.608Z,1.38
2022-11-09T15:01:06.389Z,1.35
2022-11-09T15:04:17.555Z,1.38
2022-11-09T15:07:05.126Z,1.40
2022-11-09T15:09:55.263Z,1.27
2022-11-09T15:12:47.676Z,1.52
2022-11-09T15:15:35.659Z,1.52
2022-11-09T15:18:30.333Z,1.10
2022-11-09T15:21:20.906Z,1.23
2022-11-09T15:24:15.577Z,1.70
2022-11-09T15:27:01.281Z,1.60
2022-11-09T15:29:47.036Z,1.45
2022-11-09T15:32:38.412Z,1.75
2022-11-09T15:38:30.172Z,1.63
2022-11-09T15:41:18.383Z,1.80
2022-11-09T15:44:04.962Z,1.70
2022-11-09T15:46:52.694Z,3.08
2022-11-09T15:49:40.002Z,1.60
2022-11-09T15:52:25.989Z,2.33
2022-11-09T15:55:12.837Z,1.70
2022-11-09T15:57:58.480Z,2.28
2022-11-09T16:00:45.276Z,2.00
2022-11-09T20:04:55.843Z,3.40
2022-11-09T20:13:12.722Z,3.10
2022-11-09T20:16:03.742Z,3.17
2022-11-09T20:18:50.116Z,3.50
2022-11-09T20:21:40.251Z,3.20
2022-11-09T20:24:26.655Z,2.70
2022-11-09T20:27:12.527Z,2.88
2022-11-09T20:29:57.975Z,3.25
2022-11-09T20:32:44.907Z,3.67
2022-11-09T20:35:30.835Z,3.20
2022-11-09T20:38:16.674Z,3.50
2022-11-09T20:41:04.892Z,3.08
2022-11-09T20:43:50.379Z,3.10
2022-11-09T20:46:36.924Z,2.95
2022-11-09T20:49:24.186Z,3.63
2022-11-09T20:52:09.698Z,3.33
2022-11-09T20:54:55.472Z,3.25
2022-11-09T20:57:41.671Z,3.35
2022-11-09T21:00:27.652Z,3.42
2022-11-09T21:03:13.310Z,4.50
2022-11-09T21:06:01.476Z,3.50
2022-11-09T21:08:47.953Z,3.60
2022-11-09T21:11:36.247Z,3.67
2022-11-09T21:14:21.958Z,3.47
2022-11-09T21:17:07.362Z,4.20
2022-11-09T21:19:53.223Z,3.90
2022-11-09T21:22:59.386Z,4.07
2022-11-09T21:26:03.866Z,3.50
2022-11-09T21:29:08.112Z,3.80
2022-11-09T21:31:53.809Z,4.07
2022-11-09T21:34:39.696Z,3.75
2022-11-09T21:37:25.743Z,3.85
2022-11-09T21:40:13.898Z,4.43
2022-11-09T21:42:59.599Z,3.83
2022-11-09T21:45:49.425Z,3.90
2022-11-09T21:48:35.366Z,4.20
2022-11-09T21:51:21.650Z,4.13
2022-11-09T21:54:09.739Z,3.95
2022-11-09T21:56:56.795Z,4.40
2022-11-09T21:59:42.608Z,3.90
2022-11-09T22:02:28.181Z,3.97
2022-11-09T22:05:14.939Z,3.33
2022-11-09T22:08:02.653Z,3.28
2022-11-09T22:10:48.257Z,4.03
2022-11-09T22:13:54.424Z,4.60
2022-11-09T22:16:39.976Z,3.78
2022-11-09T22:19:44.860Z,4.80
2022-11-09T22:22:31.207Z,4.00
2022-11-09T22:25:16.871Z,4.05
2022-11-09T22:28:02.779Z,3.92
2022-11-09T22:30:49.490Z,3.38
2022-11-09T22:33:35.167Z,4.22
2022-11-09T22:36:23.182Z,4.65
2022-11-09T22:39:09.096Z,4.35
2022-11-09T22:41:54.658Z,4.30
2022-11-09T22:44:40.191Z,4.30
2022-11-09T22:47:26.890Z,4.53
2022-11-09T22:50:13.166Z,4.07
2022-11-09T22:53:03.452Z,5.20
2022-11-09T22:55:52.881Z,3.93
2022-11-09T22:58:38.623Z,3.97
2022-11-09T23:01:24.443Z,3.72
2022-11-09T23:04:11.514Z,4.75
2022-11-09T23:06:57.369Z,4.97
2022-11-09T23:09:43.123Z,4.57
2022-11-09T23:12:28.673Z,5.18
2022-11-09T23:15:14.701Z,4.53
2022-11-09T23:18:19.158Z,4.95
2022-11-09T23:21:06.366Z,4.45
2022-11-09T23:23:53.148Z,4.80
2022-11-09T23:26:38.891Z,5.25
2022-11-09T23:29:24.209Z,4.80
2022-11-09T23:32:10.142Z,5.65
2022-11-09T23:34:55.656Z,5.40
2022-11-09T23:37:42.738Z,5.07
2022-11-09T23:40:28.972Z,5.50
2022-11-09T23:43:16.300Z,4.45
2022-11-09T23:46:03.212Z,5.07
2022-11-09T23:48:48.774Z,5.55
2022-11-09T23:51:34.446Z,4.72
2022-11-09T23:54:21.546Z,5.20
2022-11-09T23:57:07.180Z,5.15
2022-11-09T23:59:52.571Z,5.05
